Guion, Arkansas
Current Conditions -  °F | °C
As of 7:55 PM on Saturday 25 Oct 2014 (Local Time) from KBVX Reporting Station
Clear Clear  
Wind Chill: 23°   Ceiling: Unl
Heat Index: 23°   Visibility: 10mi
Dew Point: 17°   Wind: 3mph
Humidity: 69%   Direction: 220°SW
Pressure: 30.02"   Gusts: NA
Location:  35.93°N, 91.94°W
Report Text: KBVX 260055Z AUTO 22003KT 10SM CLR 23/17 A3002 RMK AO1
Loading
Personal Weather Stations






























Interactive Weather Map
Tropical Storm Tracking
New forecast layout! Learn more

10-Day Weather Forecast

Advertisements
Track Severe Weather on mobile